Portada
METAR-TAF:

METAR-TAF

Aeroports :

Tefé, Amazones, Brasil

latitud: 03-22S, longitud: 064-41W, altitud: 47 m

Observació

L'informe es va fer fa 1 hora i 7 minuts, a les 20:00 UTC
Vent 5 kt del Oest
Temperatura 28°C
Humitat 84%
Pressió 1007 hPa
Visibilitat 10 km o més
Escasses núvols a una alçada de 1500 ft
Cel ennuvolat a una alçada de 9000 ft

METAR: SBTF 132000Z 27005KT 9999 FEW015 BKN090 28/25 Q1007

Hora: 17:07 (21:07 UTC)

Pronòstic

L'informe es va fer fa 4 hores i 37 minuts, a les 16:30 UTC
Pronòstic vàlid del 13 a les 18 UTC al 14 a les 06 UTC
Vent 5 kt del Nord/Nord-Est
Visibilitat 10 km o més
Núvols disperses a una alçada de 2000 ft
Evolucionant progressivament
l' 13 a les 18 UTC al 13 a les 20 UTC
Vent 5 kt del Nord
Evolucionant progressivament
l' 14 a les 00 UTC al 14 a les 02 UTC
Vent 5 kt del Nord-Est

TAF: SBTF 131630Z 1318/1406 02005KT 9999 SCT020 TX30/1318Z TN25/1406Z BECMG 1318/1320 36005KT BECMG 1400/1402 04005KT RMK PGW

Observacions i pronòstics meteorològics de més de 4000 aeroports (METAR i TAF).

Les estacions disponibles són els punts grocs i vermells al mapa.

Posi el ratolí al punt desitjat per veure el nom de l'estació.

Feu clic per veure les observacions i els pronòstics meteorològics.

Per canviar el mapa: feu clic els botons verds amb una creu de color negre per apropar; al botó verd amb un guió per allunyar la imatge; o en les fletxes verdes per a mapes adjacents.


METAR-TAF: